createdAt,value
2022-08-28T00:00:51.649Z,100165.63
2022-08-28T00:03:21.462Z,100161.78
2022-08-28T00:05:49.735Z,100162.81
2022-08-28T00:08:18.930Z,100164.03
2022-08-28T00:10:47.360Z,100161.97
2022-08-28T00:13:20.461Z,100165.47
2022-08-28T00:15:52.506Z,100171.56
2022-08-28T00:18:22.805Z,100169.69
2022-08-28T00:20:51.895Z,100169.91
2022-08-28T00:23:21.163Z,100178.50
2022-08-28T00:25:50.069Z,100171.19
2022-08-28T00:28:23.383Z,100172.81
2022-08-28T00:30:55.922Z,100174.78
2022-08-28T00:33:29.783Z,100174.13
2022-08-28T00:35:59.017Z,100170.53
2022-08-28T00:38:28.643Z,100174.75
2022-08-28T00:41:03.891Z,100175.78
2022-08-28T00:43:39.983Z,100171.59
2022-08-28T00:46:12.517Z,100175.78
2022-08-28T00:48:43.253Z,100178.81
2022-08-28T00:51:41.509Z,100180.16
2022-08-28T00:54:10.545Z,100182.47
2022-08-28T00:56:41.205Z,100186.50
2022-08-28T00:59:15.377Z,100184.28
2022-08-28T01:01:45.490Z,100186.34
2022-08-28T01:04:18.097Z,100181.75
2022-08-28T01:06:48.541Z,100192.13
2022-08-28T01:09:20.909Z,100181.16
2022-08-28T01:11:52.733Z,100188.72
2022-08-28T01:14:23.823Z,100180.22
2022-08-28T01:16:55.516Z,100182.31
2022-08-28T01:19:31.445Z,100180.94
2022-08-28T01:22:13.282Z,100182.13
2022-08-28T01:24:45.634Z,100180.66
2022-08-28T01:27:14.023Z,100179.28
2022-08-28T01:29:42.424Z,100176.81
2022-08-28T01:32:31.984Z,100185.91
2022-08-28T01:35:02.100Z,100180.53
2022-08-28T01:37:31.911Z,100188.97
2022-08-28T01:40:02.350Z,100189.63
2022-08-28T01:42:30.849Z,100191.47
2022-08-28T01:44:59.160Z,100188.53
2022-08-28T01:47:27.491Z,100184.16
2022-08-28T01:49:55.716Z,100188.38
2022-08-28T01:52:26.331Z,100189.50
2022-08-28T01:54:54.948Z,100192.22
2022-08-28T01:57:27.704Z,100193.22
2022-08-28T01:59:56.414Z,100196.06
2022-08-28T02:02:25.101Z,100199.16
2022-08-28T02:04:53.945Z,100194.44
2022-08-28T02:07:22.209Z,100199.88
2022-08-28T02:09:50.562Z,100193.06
2022-08-28T02:12:19.854Z,100204.72
2022-08-28T02:14:49.825Z,100191.50
2022-08-28T02:17:18.142Z,100203.84
2022-08-28T02:19:46.509Z,100199.28
2022-08-28T02:22:14.862Z,100203.19
2022-08-28T02:24:43.235Z,100208.31
2022-08-28T02:27:11.561Z,100206.03
2022-08-28T02:29:39.904Z,100212.13
2022-08-28T02:32:09.764Z,100205.75
2022-08-28T02:34:39.131Z,100206.72
2022-08-28T02:37:08.790Z,100211.66
2022-08-28T02:39:37.133Z,100215.66
2022-08-28T02:42:05.906Z,100211.31
2022-08-28T02:44:35.339Z,100211.75
2022-08-28T02:47:03.910Z,100216.13
2022-08-28T02:49:36.090Z,100215.22
2022-08-28T02:52:06.778Z,100216.97
2022-08-28T02:54:35.894Z,100216.13
2022-08-28T02:57:04.568Z,100212.13
2022-08-28T02:59:32.976Z,100218.69
2022-08-28T03:02:03.941Z,100225.06
2022-08-28T03:04:34.017Z,100216.94
2022-08-28T03:07:02.483Z,100215.59
2022-08-28T03:09:31.375Z,100229.50
2022-08-28T03:11:59.763Z,100223.75
2022-08-28T03:14:28.775Z,100228.25
2022-08-28T03:16:57.304Z,100229.56
2022-08-28T03:19:25.630Z,100227.69
2022-08-28T03:21:57.452Z,100229.56
2022-08-28T03:24:26.059Z,100219.38
2022-08-28T03:26:54.689Z,100227.44
2022-08-28T03:29:23.064Z,100227.94
2022-08-28T03:31:51.384Z,100240.44
2022-08-28T03:34:19.784Z,100234.97
2022-08-28T03:36:48.432Z,100229.13
2022-08-28T03:39:18.216Z,100234.88
2022-08-28T03:41:46.547Z,100234.72
2022-08-28T03:44:15.723Z,100235.31
2022-08-28T03:46:44.202Z,100231.84
2022-08-28T03:49:13.438Z,100237.91
2022-08-28T03:51:43.134Z,100245.31
2022-08-28T03:54:11.673Z,100242.41
2022-08-28T03:56:43.464Z,100247.75
2022-08-28T03:59:11.803Z,100249.22
2022-08-28T04:01:40.465Z,100255.72
2022-08-28T04:04:09.458Z,100255.94
2022-08-28T04:06:37.704Z,100258.88
2022-08-28T04:09:06.438Z,100262.38
2022-08-28T04:11:42.318Z,100255.25
2022-08-28T04:14:11.154Z,100259.47
2022-08-28T04:16:39.547Z,100264.00
2022-08-28T04:19:08.005Z,100272.72
2022-08-28T04:21:36.374Z,100271.19
2022-08-28T04:24:09.368Z,100279.94
2022-08-28T04:26:38.164Z,100276.19
2022-08-28T04:29:08.254Z,100279.44
2022-08-28T04:31:37.271Z,100273.81
2022-08-28T04:34:08.644Z,100284.38
2022-08-28T04:36:38.044Z,100272.91
2022-08-28T04:39:08.685Z,100274.44
2022-08-28T04:41:38.955Z,100271.06
2022-08-28T04:44:09.538Z,100278.22
2022-08-28T04:46:38.902Z,100284.03
2022-08-28T04:49:07.200Z,100287.69
2022-08-28T04:51:38.926Z,100277.03
2022-08-28T04:54:11.501Z,100283.44
2022-08-28T04:56:41.901Z,100278.44
2022-08-28T04:59:11.840Z,100276.91
2022-08-28T05:01:42.776Z,100286.41
2022-08-28T05:04:13.012Z,100287.50
2022-08-28T05:06:45.978Z,100293.78
2022-08-28T05:09:19.182Z,100297.69
2022-08-28T05:11:48.737Z,100302.94
2022-08-28T05:14:20.096Z,100299.63
2022-08-28T05:16:52.731Z,100302.06
2022-08-28T05:19:22.934Z,100307.72
2022-08-28T05:21:51.755Z,100306.00
2022-08-28T05:24:21.215Z,100310.28
2022-08-28T05:26:49.547Z,100308.66
2022-08-28T05:29:19.406Z,100316.13
2022-08-28T05:31:48.121Z,100320.13
2022-08-28T05:34:17.543Z,100329.81
2022-08-28T05:36:45.874Z,100326.03
2022-08-28T05:39:15.019Z,100329.56
2022-08-28T05:41:46.488Z,100338.00
2022-08-28T05:44:18.769Z,100328.16
2022-08-28T05:46:48.826Z,100333.22
2022-08-28T05:49:19.396Z,100334.63
2022-08-28T05:51:48.139Z,100334.78
2022-08-28T05:54:17.994Z,100327.56
2022-08-28T05:56:47.374Z,100335.47
2022-08-28T05:59:16.728Z,100331.25
2022-08-28T06:01:49.279Z,100338.88
2022-08-28T06:04:22.545Z,100337.13
2022-08-28T06:06:50.848Z,100336.31
2022-08-28T06:09:28.137Z,100343.38
2022-08-28T06:11:59.893Z,100342.31
2022-08-28T06:14:29.674Z,100351.59
2022-08-28T06:17:00.637Z,100350.34
2022-08-28T06:19:31.914Z,100354.38
2022-08-28T06:22:07.111Z,100348.00
2022-08-28T06:24:35.993Z,100351.94
2022-08-28T06:27:04.441Z,100349.13
2022-08-28T06:29:32.789Z,100354.06
2022-08-28T06:32:05.548Z,100359.25
2022-08-28T06:34:33.959Z,100359.56
2022-08-28T06:37:02.560Z,100354.53
2022-08-28T06:39:30.910Z,100364.38
2022-08-28T06:41:59.254Z,100362.56
2022-08-28T06:44:27.896Z,100364.56
2022-08-28T06:46:57.170Z,100366.13
2022-08-28T06:49:27.110Z,100360.47
2022-08-28T06:51:56.151Z,100361.16
2022-08-28T06:54:24.673Z,100367.03
2022-08-28T06:56:54.157Z,100350.19
2022-08-28T06:59:22.620Z,100366.59
2022-08-28T07:01:53.569Z,100369.78
2022-08-28T07:04:22.058Z,100364.53
2022-08-28T07:06:54.530Z,100363.06
2022-08-28T07:09:24.823Z,100365.16
2022-08-28T07:11:53.839Z,100365.00
2022-08-28T07:14:22.345Z,100369.56
2022-08-28T07:16:51.856Z,100365.84
2022-08-28T07:19:20.340Z,100373.19
2022-08-28T07:21:48.974Z,100369.34
2022-08-28T07:24:19.690Z,100374.72
2022-08-28T07:26:48.736Z,100380.44
2022-08-28T07:29:17.287Z,100383.56
2022-08-28T07:31:53.589Z,100382.16
2022-08-28T07:34:27.068Z,100392.28
2022-08-28T07:36:56.220Z,100382.16
2022-08-28T07:39:25.962Z,100390.78
2022-08-28T07:41:54.292Z,100388.38
2022-08-28T07:44:40.315Z,100387.50
2022-08-28T07:47:09.461Z,100389.03
2022-08-28T07:49:38.307Z,100371.69
2022-08-28T07:52:08.746Z,100386.22
2022-08-28T07:54:40.551Z,100377.34
2022-08-28T07:57:10.798Z,100383.53
2022-08-28T07:59:40.897Z,100382.34
2022-08-28T08:02:13.122Z,100383.53
2022-08-28T08:04:41.573Z,100383.75
2022-08-28T08:07:10.064Z,100392.03
2022-08-28T08:09:43.126Z,100390.56
2022-08-28T08:12:13.562Z,100391.53
2022-08-28T08:14:43.837Z,100388.00
2022-08-28T08:17:13.115Z,100400.13
2022-08-28T08:19:41.774Z,100399.59
2022-08-28T08:22:10.099Z,100394.66
2022-08-28T08:24:39.781Z,100407.03
2022-08-28T08:27:08.092Z,100399.00
2022-08-28T08:29:38.672Z,100395.72
2022-08-28T08:32:10.850Z,100400.03
2022-08-28T08:34:41.091Z,100395.94
2022-08-28T08:37:10.416Z,100405.31
2022-08-28T08:39:41.620Z,100410.41
2022-08-28T08:42:22.080Z,100415.34
2022-08-28T08:44:52.978Z,100411.19
2022-08-28T08:47:26.947Z,100412.63
2022-08-28T08:49:59.506Z,100399.47
2022-08-28T08:52:47.453Z,100407.59
2022-08-28T08:55:28.128Z,100409.13
2022-08-28T08:58:06.604Z,100407.97
2022-08-28T09:00:53.769Z,100408.28
2022-08-28T09:03:25.466Z,100415.66
2022-08-28T09:05:59.548Z,100415.81
2022-08-28T09:08:36.432Z,100412.88
2022-08-28T09:11:21.447Z,100415.78
2022-08-28T09:13:59.258Z,100416.56
2022-08-28T09:16:33.290Z,100412.88
2022-08-28T09:19:03.490Z,100414.41
2022-08-28T09:21:36.580Z,100423.00
2022-08-28T09:24:11.905Z,100422.72
2022-08-28T09:26:41.720Z,100421.69
2022-08-28T09:29:18.782Z,100429.03
2022-08-28T09:31:47.197Z,100424.00
2022-08-28T09:34:24.687Z,100422.25
2022-08-28T09:36:54.143Z,100419.75
2022-08-28T09:39:25.483Z,100420.97
2022-08-28T09:42:19.917Z,100426.66
2022-08-28T09:45:02.632Z,100421.97
2022-08-28T09:47:49.128Z,100412.94
2022-08-28T09:50:34.637Z,100418.63
2022-08-28T09:53:21.855Z,100414.19
2022-08-28T09:56:17.895Z,100426.22
2022-08-28T09:58:50.994Z,100411.78
2022-08-28T10:01:40.688Z,100428.59
2022-08-28T10:04:31.702Z,100414.06
2022-08-28T10:07:09.844Z,100417.22
2022-08-28T10:09:50.517Z,100413.53
2022-08-28T10:12:36.385Z,100416.00
2022-08-28T10:15:17.188Z,100418.06
2022-08-28T10:18:06.804Z,100418.81
2022-08-28T10:20:47.989Z,100422.19
2022-08-28T10:23:29.007Z,100410.28
2022-08-28T10:26:12.368Z,100413.97
2022-08-28T10:28:56.401Z,100413.75
2022-08-28T10:31:36.165Z,100404.53
2022-08-28T10:34:25.286Z,100416.72
2022-08-28T10:37:04.247Z,100408.31
2022-08-28T10:39:50.462Z,100415.91
2022-08-28T10:42:35.901Z,100419.97
2022-08-28T10:45:11.622Z,100412.59
2022-08-28T10:47:46.837Z,100405.19
2022-08-28T10:50:23.889Z,100410.63
2022-08-28T10:52:59.200Z,100401.94
2022-08-28T10:55:36.522Z,100407.78
2022-08-28T10:58:24.381Z,100404.00
2022-08-28T11:00:56.673Z,100410.91
2022-08-28T11:03:34.737Z,100411.81
2022-08-28T11:06:09.979Z,100406.25
2022-08-28T11:08:40.661Z,100413.25
2022-08-28T11:11:15.853Z,100405.88
2022-08-28T11:13:59.658Z,100401.34
2022-08-28T11:16:42.856Z,100400.84
2022-08-28T11:19:52.301Z,100402.19
2022-08-28T11:22:25.756Z,100409.19
2022-08-28T11:25:08.967Z,100402.94
2022-08-28T11:27:39.560Z,100416.00
2022-08-28T11:30:33.890Z,100410.78
2022-08-28T11:33:20.713Z,100405.88
2022-08-28T11:35:52.790Z,100400.84
2022-08-28T11:39:20.349Z,100407.88
2022-08-28T11:42:36.110Z,100416.28
2022-08-28T11:45:05.484Z,100414.75
2022-08-28T11:47:57.699Z,100405.56
2022-08-28T11:50:33.497Z,100408.50
2022-08-28T11:53:44.708Z,100404.59
2022-08-28T11:56:48.831Z,100408.16
2022-08-28T12:00:01.883Z,100404.63
2022-08-28T12:03:14.933Z,100402.25
2022-08-28T12:05:54.986Z,100404.34
2022-08-28T12:09:11.617Z,100405.81
2022-08-28T12:11:53.320Z,100403.56
2022-08-28T12:15:07.832Z,100410.53
2022-08-28T12:17:53.159Z,100398.31
2022-08-28T12:20:45.477Z,100403.03
2022-08-28T12:23:44.421Z,100402.91
2022-08-28T12:26:25.466Z,100411.50
2022-08-28T12:28:58.308Z,100401.63
2022-08-28T12:32:14.907Z,100401.38
2022-08-28T12:34:50.956Z,100393.22
2022-08-28T12:37:51.665Z,100397.59
2022-08-28T12:40:25.326Z,100384.47
2022-08-28T12:42:58.629Z,100389.78
2022-08-28T12:45:32.330Z,100387.94
2022-08-28T12:48:09.314Z,100381.91
2022-08-28T12:50:40.116Z,100383.25
2022-08-28T12:53:16.216Z,100383.03
2022-08-28T12:55:47.038Z,100383.41
2022-08-28T12:58:31.178Z,100381.50
2022-08-28T13:01:03.533Z,100381.47
2022-08-28T13:03:32.292Z,100388.78
2022-08-28T13:06:07.175Z,100377.81
2022-08-28T13:08:37.673Z,100379.50
2022-08-28T13:11:06.678Z,100385.09
2022-08-28T13:13:40.921Z,100383.72
2022-08-28T13:16:10.742Z,100371.75
2022-08-28T13:18:53.690Z,100377.69
2022-08-28T13:21:36.104Z,100374.31
2022-08-28T13:24:59.700Z,100366.81
2022-08-28T13:27:29.074Z,100367.47
2022-08-28T13:30:08.111Z,100367.13
2022-08-28T13:32:40.411Z,100364.09
2022-08-28T13:35:33.183Z,100365.91
2022-08-28T13:38:04.513Z,100372.47
2022-08-28T13:40:57.508Z,100368.00
2022-08-28T13:43:29.355Z,100355.25
2022-08-28T13:45:59.285Z,100360.97
2022-08-28T13:48:29.143Z,100362.13
2022-08-28T13:51:05.017Z,100351.31
2022-08-28T13:53:35.664Z,100350.59
2022-08-28T13:56:05.090Z,100352.22
2022-08-28T13:58:33.447Z,100348.38
2022-08-28T14:01:03.979Z,100348.44
2022-08-28T14:03:35.753Z,100341.88
2022-08-28T14:06:07.079Z,100341.50
2022-08-28T14:08:36.212Z,100342.72
2022-08-28T14:11:04.704Z,100336.13
2022-08-28T14:13:33.095Z,100349.47
2022-08-28T14:16:06.691Z,100349.44
2022-08-28T14:18:35.573Z,100344.22
2022-08-28T14:21:07.199Z,100346.00
2022-08-28T14:23:35.635Z,100334.59
2022-08-28T14:26:06.748Z,100336.59
2022-08-28T14:28:35.223Z,100342.50
2022-08-28T14:31:12.254Z,100348.00
2022-08-28T14:33:45.204Z,100337.09
2022-08-28T14:36:18.089Z,100339.66
2022-08-28T14:38:46.563Z,100344.19
2022-08-28T14:41:16.752Z,100338.66
2022-08-28T14:43:45.852Z,100342.41
2022-08-28T14:46:19.450Z,100332.69
2022-08-28T14:48:48.661Z,100328.25
2022-08-28T14:51:17.514Z,100327.59
2022-08-28T14:53:46.313Z,100323.31
2022-08-28T14:56:14.737Z,100322.16
2022-08-28T14:58:43.143Z,100325.88
2022-08-28T15:01:11.671Z,100326.28
2022-08-28T15:03:41.476Z,100326.69
2022-08-28T15:06:11.528Z,100329.09
2022-08-28T15:08:41.652Z,100319.72
2022-08-28T15:11:18.309Z,100315.00
2022-08-28T15:13:49.978Z,100319.75
2022-08-28T15:16:21.640Z,100320.84
2022-08-28T15:18:51.352Z,100311.59
2022-08-28T15:21:22.760Z,100310.25
2022-08-28T15:23:51.565Z,100316.75
2022-08-28T15:26:21.799Z,100315.44
2022-08-28T15:28:51.171Z,100324.22
2022-08-28T15:31:20.063Z,100317.91
2022-08-28T15:33:48.376Z,100317.31
2022-08-28T15:36:18.539Z,100317.00
2022-08-28T15:39:04.278Z,100319.78
2022-08-28T15:41:32.731Z,100317.78
2022-08-28T15:44:03.040Z,100316.22
2022-08-28T15:46:35.291Z,100319.34
2022-08-28T15:49:07.748Z,100324.16
2022-08-28T15:51:38.952Z,100322.00
2022-08-28T15:54:07.805Z,100324.13
2022-08-28T15:56:36.187Z,100309.97
2022-08-28T15:59:04.661Z,100310.09
2022-08-28T16:01:33.032Z,100310.25
2022-08-28T16:04:02.408Z,100316.78
2022-08-28T16:06:30.865Z,100314.66
2022-08-28T16:09:00.644Z,100311.09
2022-08-28T16:11:32.279Z,100314.53
2022-08-28T16:14:04.485Z,100303.63
2022-08-28T16:16:33.432Z,100298.81
2022-08-28T16:19:02.675Z,100304.72
2022-08-28T16:21:31.609Z,100298.22
2022-08-28T16:24:01.443Z,100299.25
2022-08-28T16:26:30.422Z,100300.28
2022-08-28T16:28:58.896Z,100302.44
2022-08-28T16:31:27.248Z,100310.66
2022-08-28T16:33:56.901Z,100306.19
2022-08-28T16:36:26.137Z,100301.59
2022-08-28T16:39:00.573Z,100303.69
2022-08-28T16:41:33.781Z,100310.06
2022-08-28T16:44:02.076Z,100306.78
2022-08-28T16:46:30.831Z,100307.75
2022-08-28T16:48:59.579Z,100301.31
2022-08-28T16:51:29.671Z,100296.84
2022-08-28T16:53:58.957Z,100309.94
2022-08-28T16:56:27.318Z,100293.22
2022-08-28T16:58:57.746Z,100302.78
2022-08-28T17:01:26.842Z,100307.53
2022-08-28T17:03:55.586Z,100296.34
2022-08-28T17:06:29.388Z,100297.78
2022-08-28T17:08:59.135Z,100303.50
2022-08-28T17:11:28.591Z,100307.84
2022-08-28T17:13:58.566Z,100305.97
2022-08-28T17:16:31.303Z,100311.09
2022-08-28T17:19:00.444Z,100305.84
2022-08-28T17:21:46.462Z,100303.63
2022-08-28T17:24:15.180Z,100298.31
2022-08-28T17:26:44.403Z,100306.53
2022-08-28T17:29:14.223Z,100307.50
2022-08-28T17:31:42.729Z,100303.44
2022-08-28T17:34:11.940Z,100312.75
2022-08-28T17:36:42.480Z,100308.69
2022-08-28T17:39:13.902Z,100307.81
2022-08-28T17:41:43.879Z,100311.06
2022-08-28T17:44:13.848Z,100309.47
2022-08-28T17:46:42.259Z,100299.91
2022-08-28T17:49:10.770Z,100312.59
2022-08-28T17:51:42.643Z,100307.97
2022-08-28T17:54:13.954Z,100316.22
2022-08-28T17:56:42.917Z,100311.47
2022-08-28T17:59:13.587Z,100313.97
2022-08-28T18:01:43.325Z,100320.53
2022-08-28T18:04:12.077Z,100330.34
2022-08-28T18:06:40.684Z,100328.31
2022-08-28T18:09:10.552Z,100324.47
2022-08-28T18:11:39.144Z,100322.78
2022-08-28T18:14:08.340Z,100327.91
2022-08-28T18:16:39.620Z,100319.72
2022-08-28T18:19:11.363Z,100325.22
2022-08-28T18:21:40.215Z,100318.31
2022-08-28T18:24:10.229Z,100317.91
2022-08-28T18:26:38.527Z,100321.38
2022-08-28T18:29:07.064Z,100325.69
2022-08-28T18:31:35.504Z,100327.94
2022-08-28T18:34:05.502Z,100335.13
2022-08-28T18:36:34.093Z,100335.72
2022-08-28T18:39:02.551Z,100347.38
2022-08-28T18:41:43.096Z,100337.97
2022-08-28T18:44:14.231Z,100339.59
2022-08-28T18:46:43.860Z,100346.56
2022-08-28T18:49:14.419Z,100351.44
2022-08-28T18:51:44.666Z,100362.88
2022-08-28T18:54:16.495Z,100361.25
2022-08-28T18:56:45.997Z,100362.03
2022-08-28T18:59:16.531Z,100362.41
2022-08-28T19:01:45.050Z,100363.19
2022-08-28T19:04:14.865Z,100369.34
2022-08-28T19:06:44.464Z,100374.41
2022-08-28T19:09:20.212Z,100373.97
2022-08-28T19:12:21.113Z,100377.22
2022-08-28T19:14:53.541Z,100379.25
2022-08-28T19:17:24.423Z,100379.91
2022-08-28T19:20:00.442Z,100373.75
2022-08-28T19:22:30.045Z,100389.69
2022-08-28T19:24:58.624Z,100382.28
2022-08-28T19:27:30.212Z,100381.69
2022-08-28T19:34:27.866Z,100378.38
2022-08-28T19:37:32.419Z,100384.69
2022-08-28T19:49:08.480Z,100391.72
2022-08-28T19:51:50.899Z,100396.66
2022-08-28T19:55:49.915Z,100392.47
2022-08-28T19:58:24.518Z,100395.16
2022-08-28T20:00:54.404Z,100397.63
2022-08-28T20:03:52.201Z,100414.88
2022-08-28T20:06:59.895Z,100401.72
2022-08-28T20:09:37.904Z,100408.47
2022-08-28T20:12:14.723Z,100414.97
2022-08-28T20:15:08.985Z,100417.53
2022-08-28T20:17:49.497Z,100423.41
2022-08-28T20:20:20.151Z,100419.75
2022-08-28T20:22:48.866Z,100423.53
2022-08-28T20:25:23.027Z,100425.84
2022-08-28T20:27:52.811Z,100429.50
2022-08-28T20:30:21.291Z,100425.63
2022-08-28T20:32:49.929Z,100422.75
2022-08-28T20:35:24.513Z,100419.91
2022-08-28T20:38:23.750Z,100435.69
2022-08-28T20:40:55.442Z,100433.75
2022-08-28T20:43:40.121Z,100428.38
2022-08-28T20:50:46.571Z,100439.47
2022-08-28T21:10:43.490Z,100450.44
2022-08-28T21:17:18.605Z,100449.53
2022-08-28T21:20:53.073Z,100457.19
2022-08-28T21:24:03.752Z,100460.94
2022-08-28T21:26:53.768Z,100465.56
2022-08-28T21:30:11.713Z,100476.31
2022-08-28T21:33:39.830Z,100475.13
2022-08-28T21:36:10.786Z,100475.59
2022-08-28T21:38:39.869Z,100479.59
2022-08-28T21:41:13.951Z,100479.53
2022-08-28T21:43:44.978Z,100475.31
2022-08-28T21:46:17.159Z,100469.09
2022-08-28T21:48:50.343Z,100471.63
2022-08-28T21:51:20.713Z,100474.50
2022-08-28T21:53:51.004Z,100481.81
2022-08-28T21:56:23.924Z,100483.50
2022-08-28T21:58:54.141Z,100476.53
2022-08-28T22:01:26.531Z,100483.09
2022-08-28T22:03:57.167Z,100479.63
2022-08-28T22:06:27.745Z,100490.72
2022-08-28T22:08:57.129Z,100491.66
2022-08-28T22:11:26.911Z,100485.66
2022-08-28T22:13:56.889Z,100485.28
2022-08-28T22:16:26.781Z,100485.81
2022-08-28T22:18:56.907Z,100488.81
2022-08-28T22:21:45.793Z,100495.66
2022-08-28T22:24:14.953Z,100500.66
2022-08-28T22:26:45.295Z,100506.19
2022-08-28T22:29:14.192Z,100503.09
2022-08-28T22:31:45.932Z,100496.06
2022-08-28T22:34:17.753Z,100497.53
2022-08-28T22:36:46.582Z,100488.66
2022-08-28T22:39:15.212Z,100492.94
2022-08-28T22:41:44.087Z,100499.66
2022-08-28T22:44:12.476Z,100496.38
2022-08-28T22:46:41.544Z,100499.91
2022-08-28T22:49:10.300Z,100494.50
2022-08-28T22:51:40.359Z,100497.72
2022-08-28T22:54:09.167Z,100501.84
2022-08-28T22:56:37.929Z,100507.28
2022-08-28T22:59:06.493Z,100509.22
2022-08-28T23:01:35.899Z,100508.38
2022-08-28T23:04:05.264Z,100500.94
2022-08-28T23:06:33.945Z,100498.34
2022-08-28T23:09:03.838Z,100509.22
2022-08-28T23:11:32.225Z,100510.09
2022-08-28T23:14:01.230Z,100516.69
2022-08-28T23:16:30.230Z,100506.53
2022-08-28T23:19:14.139Z,100510.94
2022-08-28T23:21:44.487Z,100507.13
2022-08-28T23:24:16.472Z,100506.81
2022-08-28T23:26:46.997Z,100501.50
2022-08-28T23:29:15.548Z,100501.28
2022-08-28T23:31:44.399Z,100500.69
2022-08-28T23:34:15.242Z,100505.66
2022-08-28T23:36:44.487Z,100498.69
2022-08-28T23:39:14.897Z,100500.47
2022-08-28T23:41:43.668Z,100505.41
2022-08-28T23:44:12.408Z,100501.97
2022-08-28T23:46:42.365Z,100512.16
2022-08-28T23:49:11.901Z,100504.47
2022-08-28T23:51:42.498Z,100508.94
2022-08-28T23:54:12.297Z,100504.88
2022-08-28T23:56:42.521Z,100505.50
2022-08-28T23:59:12.233Z,100500.53
